Terminal Aerodrome Forecast
Issued by NWS Tulsa, OK

Home | Current Version | Previous Version | Text Only | Print | Product List | Glossary Off
Versions: 1 2 3 4 5 6 7 8 9 10 11 12 13 14

000
FTUS44 KTSA 051720
TAFTUL
TAF
KTUL 051720Z 0518/0618 18012KT P6SM SCT030 SCT250
     FM060100 17011KT P6SM SCT250
     FM061200 18013G20KT P6SM BKN025=

USA.gov is the U.S. government's official web portal to all federal, state and local government web resources and services.